Time;durP1;ratioP1;P1;durP2;ratioP2;P2;SDS_P1;SDS_P2;PMS_P1;PMS_P2;Temp;Humidity;BMP_temperature;BMP_pressure;BME280_temperature;BME280_humidity;BME280_pressure;Samples;Min_cycle;Max_cycle;Signal;HPM_P1;HPM_P2
2023/12/27 00:00:29;;;;;;;6.57;2.28;;;;;;;;;;4970601;28;20125;-37
2023/12/27 00:02:55;;;;;;;5.78;1.95;;;11.50;1.00;;;;;;4969446;28;20046;-37
2023/12/27 00:05:21;;;;;;;6.47;2.10;;;11.70;1.00;;;;;;4970837;28;20030;-37
2023/12/27 00:07:47;;;;;;;6.28;1.73;;;11.30;1.00;;;;;;4969985;28;20042;-37
2023/12/27 00:10:12;;;;;;;7.50;2.08;;;11.60;1.00;;;;;;4973259;28;20101;-36
2023/12/27 00:12:39;;;;;;;6.38;1.75;;;;;;;;;;4968922;28;20414;-37
2023/12/27 00:15:05;;;;;;;4.40;1.70;;;11.00;1.00;;;;;;4972136;28;20046;-35
2023/12/27 00:17:30;;;;;;;5.10;1.98;;;11.00;1.00;;;;;;4971993;28;20066;-35
2023/12/27 00:19:56;;;;;;;5.57;1.67;;;11.10;1.00;;;;;;4970342;28;20030;-37
2023/12/27 00:22:23;;;;;;;5.88;1.65;;;10.80;1.00;;;;;;4969676;28;20043;-38
2023/12/27 00:24:48;;;;;;;5.25;2.10;;;11.20;1.00;;;;;;4971385;28;20046;-35
2023/12/27 00:27:14;;;;;;;5.32;2.05;;;11.20;1.00;;;;;;4968275;28;20049;-39
2023/12/27 00:29:41;;;;;;;4.90;2.00;;;;;;;;;;4968638;28;20453;-35
2023/12/27 00:32:08;;;;;;;7.93;1.80;;;10.90;1.00;;;;;;4965681;28;20125;-36
2023/12/27 00:34:37;;;;;;;5.30;2.00;;;11.50;1.00;;;;;;4972649;28;20046;-35
2023/12/27 00:37:03;;;;;;;7.10;2.00;;;11.00;1.00;;;;;;4969388;28;20031;-35
2023/12/27 00:39:29;;;;;;;6.57;2.00;;;11.40;1.00;;;;;;4970070;28;20089;-40
2023/12/27 00:41:55;;;;;;;7.35;2.17;;;11.50;1.00;;;;;;4969835;28;20049;-35
2023/12/27 00:44:21;;;;;;;5.35;1.80;;;11.70;1.00;;;;;;4970136;28;20478;-37
2023/12/27 00:46:47;;;;;;;6.30;1.60;;;;;;;;;;4966122;28;20047;-35
2023/12/27 00:49:12;;;;;;;6.15;1.95;;;11.40;1.00;;;;;;4970427;28;20418;-34
2023/12/27 00:51:38;;;;;;;6.13;1.67;;;11.50;1.00;;;;;;4971754;28;20043;-35
2023/12/27 00:54:04;;;;;;;5.75;1.95;;;10.90;1.00;;;;;;4971259;28;20560;-38
2023/12/27 00:56:29;;;;;;;4.22;1.67;;;11.20;1.00;;;;;;4969107;28;20038;-41
2023/12/27 00:58:55;;;;;;;5.50;1.85;;;11.20;1.00;;;;;;4966256;28;20030;-37
2023/12/27 01:01:21;;;;;;;5.90;1.80;;;11.00;1.00;;;;;;4969215;28;20035;-36
2023/12/27 01:03:46;;;;;;;5.80;1.60;;;11.30;1.00;;;;;;4965382;28;20125;-35
2023/12/27 01:06:12;;;;;;;5.03;1.63;;;11.60;1.00;;;;;;4967480;28;20068;-37
2023/12/27 01:08:38;;;;;;;5.18;1.40;;;11.10;1.00;;;;;;4967025;28;20153;-35
2023/12/27 01:11:05;;;;;;;7.97;2.13;;;11.20;1.00;;;;;;4967499;28;21717;-37
2023/12/27 01:13:31;;;;;;;4.80;1.60;;;10.70;1.00;;;;;;4969569;28;20060;-39
2023/12/27 01:15:59;;;;;;;5.55;1.80;;;10.60;1.00;;;;;;4968902;28;20041;-37
2023/12/27 01:18:24;;;;;;;6.57;1.60;;;11.60;1.00;;;;;;4967907;28;20097;-37
2023/12/27 01:20:50;;;;;;;5.15;1.90;;;10.70;1.00;;;;;;4968273;28;20027;-34
2023/12/27 01:23:16;;;;;;;5.72;1.40;;;11.10;1.00;;;;;;4969136;28;20494;-35
2023/12/27 01:25:41;;;;;;;4.80;1.70;;;11.00;1.00;;;;;;4970988;28;20437;-35
2023/12/27 01:28:07;;;;;;;5.95;1.75;;;11.00;1.00;;;;;;4965808;28;20042;-41
2023/12/27 01:30:33;;;;;;;5.63;1.60;;;11.10;1.00;;;;;;4983833;28;20034;-35
2023/12/27 01:32:59;;;;;;;6.13;2.60;;;11.50;1.00;;;;;;4968333;28;20047;-38
2023/12/27 01:35:25;;;;;;;4.72;1.85;;;10.90;1.00;;;;;;4968415;28;20046;-35
2023/12/27 01:37:51;;;;;;;4.72;1.50;;;10.80;1.00;;;;;;4968985;28;20034;-35
2023/12/27 01:40:16;;;;;;;5.90;1.40;;;11.60;1.00;;;;;;4966625;28;20396;-41
2023/12/27 01:42:42;;;;;;;5.07;1.73;;;10.80;1.00;;;;;;4969497;28;20059;-38
2023/12/27 01:45:08;;;;;;;4.57;1.58;;;11.20;1.00;;;;;;4969380;28;20098;-34
2023/12/27 01:47:36;;;;;;;6.82;1.75;;;;;;;;;;4969120;28;20117;-37
2023/12/27 01:50:03;;;;;;;7.10;1.90;;;11.30;1.00;;;;;;4966607;28;20538;-34
2023/12/27 01:52:30;;;;;;;4.75;1.50;;;10.70;1.00;;;;;;4963360;28;20051;-39
2023/12/27 01:54:55;;;;;;;4.75;1.48;;;11.70;1.00;;;;;;4967863;28;20514;-35
2023/12/27 01:57:21;;;;;;;7.38;1.75;;;11.60;1.00;;;;;;4983771;28;20047;-36
2023/12/27 01:59:47;;;;;;;4.70;1.40;;;11.20;1.00;;;;;;4966959;28;20081;-34
2023/12/27 02:02:13;;;;;;;4.20;1.45;;;11.20;1.00;;;;;;4965702;28;20054;-34
2023/12/27 02:04:39;;;;;;;5.68;1.40;;;11.80;1.00;;;;;;4970692;28;20422;-38
2023/12/27 02:07:07;;;;;;;6.22;1.70;;;11.00;1.00;;;;;;4966876;28;20043;-35
2023/12/27 02:09:33;;;;;;;6.47;1.40;;;11.40;1.00;;;;;;4980650;28;20047;-34
2023/12/27 02:11:59;;;;;;;4.55;1.65;;;11.60;1.00;;;;;;4970165;28;20049;-35
2023/12/27 02:14:25;;;;;;;3.47;1.40;;;11.40;1.00;;;;;;4970322;28;20038;-35
2023/12/27 02:16:51;;;;;;;5.13;1.38;;;;;;;;;;4969965;28;20039;-37
2023/12/27 02:19:21;;;;;;;4.47;1.60;;;11.10;1.00;;;;;;4970360;28;20039;-36
2023/12/27 02:21:48;;;;;;;4.05;1.30;;;11.40;1.00;;;;;;4969701;28;20038;-38
2023/12/27 02:24:17;;;;;;;4.28;1.30;;;10.90;1.00;;;;;;4969535;28;20043;-35
2023/12/27 02:26:43;;;;;;;4.47;1.35;;;11.00;1.00;;;;;;4967953;28;20045;-37
2023/12/27 02:29:09;;;;;;;4.40;1.30;;;;;;;;;;4969030;28;20054;-35
2023/12/27 02:31:35;;;;;;;4.45;1.33;;;11.10;1.00;;;;;;4969960;28;20578;-37
2023/12/27 02:34:01;;;;;;;5.65;1.70;;;10.70;1.00;;;;;;4969013;28;20038;-38
2023/12/27 02:36:26;;;;;;;5.50;1.15;;;10.80;1.00;;;;;;4969587;28;20344;-35
2023/12/27 02:38:52;;;;;;;5.05;1.50;;;11.00;1.00;;;;;;4969574;28;20394;-36
2023/12/27 02:41:17;;;;;;;4.72;1.35;;;11.60;1.00;;;;;;4961554;28;20035;-35
2023/12/27 02:43:43;;;;;;;4.65;1.50;;;10.90;1.00;;;;;;4966477;28;20118;-38
2023/12/27 02:46:09;;;;;;;6.15;1.40;;;10.70;1.00;;;;;;4960398;28;20117;-36
2023/12/27 02:48:34;;;;;;;4.55;1.33;;;11.10;1.00;;;;;;4962599;28;20055;-35
2023/12/27 02:51:00;;;;;;;7.43;1.50;;;11.20;1.00;;;;;;4965488;28;20053;-39
2023/12/27 02:53:25;;;;;;;5.13;1.40;;;10.90;1.00;;;;;;4963777;28;20085;-36
2023/12/27 02:55:51;;;;;;;4.20;1.23;;;11.80;1.00;;;;;;4966405;28;20030;-35
2023/12/27 02:58:17;;;;;;;6.30;1.58;;;11.10;1.00;;;;;;4963424;28;20034;-36
2023/12/27 03:00:45;;;;;;;5.43;1.55;;;11.60;1.00;;;;;;4968194;28;20035;-37
2023/12/27 03:03:14;;;;;;;5.05;1.40;;;11.10;1.00;;;;;;4965913;28;20093;-34
2023/12/27 03:05:40;;;;;;;4.35;1.48;;;11.30;1.00;;;;;;4968552;28;20487;-38
2023/12/27 03:08:05;;;;;;;4.82;1.70;;;10.90;1.00;;;;;;4967336;28;20042;-37
2023/12/27 03:10:31;;;;;;;4.22;1.30;;;11.10;1.00;;;;;;4969141;28;20564;-37
2023/12/27 03:12:56;;;;;;;5.40;1.50;;;11.70;1.00;;;;;;4971577;28;20066;-41
2023/12/27 03:15:22;;;;;;;4.75;1.30;;;11.20;1.00;;;;;;4972585;28;20074;-36
2023/12/27 03:17:48;;;;;;;4.75;1.55;;;10.80;1.00;;;;;;4970758;28;20034;-36
2023/12/27 03:20:13;;;;;;;4.28;1.45;;;11.40;1.00;;;;;;4970939;28;20066;-35
2023/12/27 03:22:39;;;;;;;4.25;1.45;;;11.20;1.00;;;;;;4967115;28;20129;-35
2023/12/27 03:25:05;;;;;;;4.90;1.15;;;11.20;1.00;;;;;;4968683;28;20082;-38
2023/12/27 03:27:31;;;;;;;5.32;1.25;;;11.10;1.00;;;;;;4973169;28;20035;-35
2023/12/27 03:29:57;;;;;;;4.03;1.35;;;;;;;;;;4968971;28;20046;-41
2023/12/27 03:32:25;;;;;;;3.78;1.20;;;11.10;1.00;;;;;;4962841;28;20057;-38
2023/12/27 03:34:51;;;;;;;4.88;1.30;;;11.00;1.00;;;;;;4972229;28;20035;-38
2023/12/27 03:37:16;;;;;;;5.20;1.60;;;11.00;1.00;;;;;;4971533;28;20165;-35
2023/12/27 03:39:46;;;;;;;4.78;1.42;;;11.50;1.00;;;;;;4970748;28;20117;-35
2023/12/27 03:42:12;;;;;;;4.80;1.33;;;10.80;1.00;;;;;;4972095;28;20047;-35
2023/12/27 03:44:38;;;;;;;6.20;1.38;;;11.50;1.00;;;;;;4968621;28;20435;-35
2023/12/27 03:47:04;;;;;;;3.28;1.15;;;11.00;1.00;;;;;;4970095;28;20124;-35
2023/12/27 03:49:30;;;;;;;4.32;1.40;;;11.20;1.00;;;;;;4968827;28;20387;-34
2023/12/27 03:51:55;;;;;;;3.90;1.10;;;11.50;1.00;;;;;;4970557;28;20071;-37
2023/12/27 03:54:21;;;;;;;5.57;1.52;;;11.10;1.00;;;;;;4965035;28;20497;-36
2023/12/27 03:56:47;;;;;;;4.28;1.40;;;11.40;1.00;;;;;;4970197;28;20046;-35
2023/12/27 03:59:12;;;;;;;5.55;1.75;;;11.20;1.00;;;;;;4969429;28;20474;-35
2023/12/27 04:01:38;;;;;;;4.97;1.45;;;11.70;1.00;;;;;;4971753;28;20031;-35
2023/12/27 04:04:04;;;;;;;4.55;1.40;;;10.80;1.00;;;;;;4969148;28;20431;-35
2023/12/27 04:06:29;;;;;;;3.10;1.27;;;11.60;1.00;;;;;;4972327;28;20111;-39
2023/12/27 04:08:55;;;;;;;5.90;1.38;;;11.10;1.00;;;;;;4971258;28;20109;-37
2023/12/27 04:11:21;;;;;;;4.97;1.25;;;10.90;1.00;;;;;;4971740;28;20077;-35
2023/12/27 04:13:46;;;;;;;3.65;1.20;;;11.30;1.00;;;;;;4995880;23;20074;-78
2023/12/27 04:16:12;;;;;;;4.50;1.30;;;11.90;1.00;;;;;;4987789;28;20142;-78
2023/12/27 04:18:38;;;;;;;4.53;1.42;;;10.90;1.00;;;;;;4979974;28;20084;-80
2023/12/27 04:21:03;;;;;;;3.38;1.10;;;11.90;1.00;;;;;;5003253;28;20034;-80
2023/12/27 04:23:29;;;;;;;4.97;1.40;;;11.50;1.00;;;;;;4989563;28;20453;-80
2023/12/27 04:25:56;;;;;;;4.07;1.45;;;11.10;1.00;;;;;;4973096;28;20498;-79
2023/12/27 04:28:22;;;;;;;4.65;1.50;;;;;;;;;;4973636;28;20121;-80
2023/12/27 04:30:48;;;;;;;4.15;1.30;;;11.50;1.00;;;;;;4957361;28;20495;-80
2023/12/27 04:33:13;;;;;;;5.05;1.10;;;11.20;1.00;;;;;;4969577;28;20046;-80
2023/12/27 04:35:39;;;;;;;3.85;1.30;;;11.10;1.00;;;;;;4956080;28;20031;-80
2023/12/27 04:38:05;;;;;;;6.45;1.52;;;11.20;1.00;;;;;;4973340;28;20090;-80
2023/12/27 04:40:30;;;;;;;3.70;1.40;;;11.10;1.00;;;;;;4973385;28;20042;-80
2023/12/27 04:42:57;;;;;;;4.35;1.30;;;10.80;1.00;;;;;;4955864;28;20037;-80
2023/12/27 04:45:22;;;;;;;4.32;1.23;;;10.70;1.00;;;;;;4956537;28;20042;-79
2023/12/27 04:47:48;;;;;;;5.35;1.45;;;12.20;1.00;;;;;;4956563;28;20037;-81
2023/12/27 04:50:14;;;;;;;5.07;1.48;;;11.30;1.00;;;;;;4957592;28;20559;-80
2023/12/27 04:52:39;;;;;;;4.07;1.20;;;11.30;1.00;;;;;;4955720;28;20066;-80
2023/12/27 04:55:07;;;;;;;4.25;1.27;;;;;;;;;;4959539;28;20057;-80
2023/12/27 04:57:32;;;;;;;3.28;1.00;;;10.80;1.00;;;;;;4955414;28;20123;-80
2023/12/27 04:59:58;;;;;;;4.70;1.10;;;;;;;;;;4950837;28;20135;-80
2023/12/27 05:02:24;;;;;;;4.65;1.30;;;11.00;1.00;;;;;;4973101;28;20074;-80
2023/12/27 05:04:50;;;;;;;5.80;1.20;;;11.30;1.00;;;;;;4951808;28;20047;-80
2023/12/27 05:07:15;;;;;;;4.43;1.40;;;10.80;1.00;;;;;;4969084;28;20045;-80
2023/12/27 05:09:41;;;;;;;4.22;1.25;;;11.50;1.00;;;;;;4954479;28;20497;-80
2023/12/27 05:12:06;;;;;;;3.60;1.27;;;11.50;1.00;;;;;;4964889;28;20134;-80
2023/12/27 05:14:32;;;;;;;5.38;1.73;;;11.20;1.00;;;;;;4969953;28;20041;-79
2023/12/27 05:16:58;;;;;;;4.35;1.83;;;11.40;1.00;;;;;;4954569;28;20035;-80
2023/12/27 05:19:23;;;;;;;4.55;1.50;;;11.30;1.00;;;;;;4969605;28;20033;-80
2023/12/27 05:21:49;;;;;;;4.85;1.30;;;11.10;1.00;;;;;;4953227;28;20038;-80
2023/12/27 05:24:14;;;;;;;5.15;1.30;;;11.00;1.00;;;;;;4972502;28;20054;-80
2023/12/27 05:26:40;;;;;;;4.20;1.20;;;11.80;1.00;;;;;;4954246;28;20418;-80
2023/12/27 05:29:06;;;;;;;6.47;1.50;;;10.90;1.00;;;;;;4961392;28;20046;-80
2023/12/27 05:31:31;;;;;;;4.38;1.35;;;11.30;1.00;;;;;;4954426;28;20513;-80
2023/12/27 05:33:57;;;;;;;5.72;1.38;;;10.90;1.00;;;;;;4952818;28;20144;-80
2023/12/27 05:36:23;;;;;;;4.30;1.30;;;11.20;1.00;;;;;;4970897;28;20113;-80
2023/12/27 05:38:49;;;;;;;4.65;1.30;;;11.40;2.80;;;;;;4956008;28;20079;-80
2023/12/27 05:41:14;;;;;;;5.35;1.58;;;11.60;3.80;;;;;;4971381;28;20061;-80
2023/12/27 05:43:40;;;;;;;4.68;1.40;;;10.80;1.00;;;;;;4972614;28;20052;-80
2023/12/27 05:46:05;;;;;;;4.95;1.40;;;11.20;5.30;;;;;;4968558;28;20049;-80
2023/12/27 05:48:31;;;;;;;7.32;1.75;;;11.30;7.30;;;;;;4953021;28;20042;-80
2023/12/27 05:50:57;;;;;;;3.80;1.20;;;11.80;7.90;;;;;;4969830;28;20043;-80
2023/12/27 05:53:22;;;;;;;4.43;1.30;;;11.00;3.60;;;;;;4971417;28;20613;-80
2023/12/27 05:55:48;;;;;;;4.18;1.38;;;11.00;5.30;;;;;;4962580;28;20487;-80
2023/12/27 05:58:14;;;;;;;4.68;1.40;;;11.30;9.40;;;;;;4973379;28;20445;-80
2023/12/27 06:00:39;;;;;;;6.53;1.63;;;10.90;6.00;;;;;;4970022;28;20066;-80
2023/12/27 06:03:05;;;;;;;3.92;1.20;;;10.80;18.20;;;;;;4970839;28;20041;-80
2023/12/27 06:05:31;;;;;;;4.18;1.10;;;10.80;8.40;;;;;;4970249;28;20049;-80
2023/12/27 06:07:57;;;;;;;4.00;1.17;;;10.90;13.80;;;;;;4952940;28;20139;-80
2023/12/27 06:10:23;;;;;;;3.90;1.30;;;11.50;14.30;;;;;;4970324;28;20049;-80
2023/12/27 06:12:49;;;;;;;4.95;1.20;;;10.90;10.90;;;;;;4970133;28;20410;-80
2023/12/27 06:15:15;;;;;;;3.70;1.10;;;11.60;16.30;;;;;;4971097;28;20114;-80
2023/12/27 06:17:40;;;;;;;3.83;1.30;;;10.70;12.10;;;;;;4971297;28;20260;-80
2023/12/27 06:20:08;;;;;;;4.63;1.27;;;12.00;16.30;;;;;;4972049;28;20155;-80
2023/12/27 06:22:34;;;;;;;5.22;1.55;;;11.40;13.40;;;;;;5002593;28;20046;-80
2023/12/27 06:25:00;;;;;;;4.00;1.20;;;;;;;;;;4964867;28;20050;-80
2023/12/27 06:27:26;;;;;;;4.47;1.38;;;11.00;14.40;;;;;;4954999;28;20125;-80
2023/12/27 06:29:51;;;;;;;5.32;1.20;;;11.40;17.60;;;;;;4970685;28;20125;-80
2023/12/27 06:32:17;;;;;;;4.22;1.30;;;11.60;19.20;;;;;;4969483;28;20038;-80
2023/12/27 06:34:43;;;;;;;3.13;1.20;;;11.80;19.80;;;;;;4970784;28;20550;-80
2023/12/27 06:37:08;;;;;;;5.13;1.48;;;11.00;19.70;;;;;;4971228;28;20043;-80
2023/12/27 06:39:34;;;;;;;4.97;1.40;;;11.40;20.70;;;;;;4974812;28;20078;-80
2023/12/27 06:42:00;;;;;;;3.83;1.33;;;11.00;17.20;;;;;;4970697;28;20035;-80
2023/12/27 06:44:25;;;;;;;7.32;1.67;;;11.00;17.90;;;;;;4961121;28;20042;-80
2023/12/27 06:46:52;;;;;;;4.72;1.50;;;11.50;17.30;;;;;;4976087;28;20039;-80
2023/12/27 06:49:18;;;;;;;5.32;1.75;;;11.30;22.80;;;;;;4975115;28;20121;-80
2023/12/27 06:51:43;;;;;;;4.53;1.45;;;11.60;19.50;;;;;;4975162;28;20541;-79
2023/12/27 06:54:09;;;;;;;4.55;1.40;;;11.00;21.10;;;;;;4960287;28;20049;-80
2023/12/27 06:56:38;;;;;;;3.83;1.35;;;11.20;23.90;;;;;;4976358;28;20520;-80
2023/12/27 06:59:04;;;;;;;3.65;1.25;;;11.40;20.80;;;;;;4977021;28;20058;-80
2023/12/27 07:01:30;;;;;;;6.78;1.20;;;11.30;34.40;;;;;;4980876;28;20402;-80
2023/12/27 07:03:55;;;;;;;4.85;1.63;;;10.90;26.20;;;;;;4973656;28;20042;-80
2023/12/27 07:06:21;;;;;;;4.00;1.10;;;11.40;26.40;;;;;;4974146;28;20509;-80
2023/12/27 07:08:47;;;;;;;5.97;1.52;;;10.70;23.00;;;;;;4977175;28;20043;-80
2023/12/27 07:11:19;;;;;;;4.97;1.20;;;11.00;25.10;;;;;;4961190;28;20097;-80
2023/12/27 07:13:46;;;;;;;3.95;1.30;;;11.10;28.70;;;;;;4971738;28;20038;-80
2023/12/27 07:16:13;;;;;;;4.55;1.30;;;11.60;25.70;;;;;;4974235;28;20053;-80
2023/12/27 07:18:39;;;;;;;5.78;1.40;;;10.80;25.60;;;;;;4975658;28;20070;-80
2023/12/27 07:21:05;;;;;;;4.28;1.42;;;11.40;26.60;;;;;;4992998;28;20117;-80
2023/12/27 07:23:31;;;;;;;3.83;1.02;;;11.30;28.10;;;;;;4977892;28;20121;-80
2023/12/27 07:25:59;;;;;;;6.22;1.48;;;10.70;32.80;;;;;;4974306;28;20395;-80
2023/12/27 07:28:25;;;;;;;5.35;1.30;;;11.10;33.70;;;;;;4969451;28;20570;-80
2023/12/27 07:30:51;;;;;;;4.75;1.42;;;11.20;34.40;;;;;;4973450;28;20074;-79
2023/12/27 07:33:16;;;;;;;5.10;1.30;;;10.90;34.70;;;;;;4974298;28;20038;-80
2023/12/27 07:35:45;;;;;;;5.50;1.30;;;10.90;36.30;;;;;;4976106;28;20101;-80
2023/12/27 07:38:10;;;;;;;3.55;1.13;;;11.40;13.40;;;;;;4955431;28;20371;-80
2023/12/27 07:40:36;;;;;;;5.07;1.40;;;11.00;39.50;;;;;;4979537;28;20045;-80
2023/12/27 07:43:03;;;;;;;3.78;1.27;;;10.90;41.30;;;;;;4969440;28;20042;-81
2023/12/27 07:45:28;;;;;;;3.95;1.20;;;11.10;37.20;;;;;;4976494;28;20093;-80
2023/12/27 07:47:54;;;;;;;7.95;1.40;;;11.10;37.50;;;;;;4971968;28;20051;-81
2023/12/27 07:50:20;;;;;;;4.75;1.30;;;10.80;43.80;;;;;;4958531;28;20129;-80
2023/12/27 07:52:46;;;;;;;5.05;1.30;;;11.40;44.10;;;;;;4952142;28;20057;-80
2023/12/27 07:55:12;;;;;;;6.13;1.30;;;12.10;44.20;;;;;;4961096;28;20499;-80
2023/12/27 07:57:38;;;;;;;6.25;1.45;;;11.60;40.00;;;;;;4973511;28;20050;-81
2023/12/27 08:00:07;;;;;;;6.82;1.35;;;11.10;43.50;;;;;;4989647;28;20117;-81
2023/12/27 08:02:32;;;;;;;5.10;1.50;;;11.70;43.90;;;;;;4961670;28;20034;-81
2023/12/27 08:04:58;;;;;;;9.25;1.73;;;10.80;45.00;;;;;;4979065;28;20045;-81
2023/12/27 08:07:24;;;;;;;11.30;3.10;;;10.90;52.70;;;;;;4973963;28;20066;-81
2023/12/27 08:09:49;;;;;;;17.80;4.25;;;11.40;49.70;;;;;;4956123;28;20094;-80
2023/12/27 08:12:15;;;;;;;21.90;4.90;;;11.40;59.30;;;;;;4955861;28;20038;-80
2023/12/27 08:14:40;;;;;;;24.38;5.07;;;11.00;55.30;;;;;;4954439;28;20038;-81
2023/12/27 08:17:07;;;;;;;22.10;4.90;;;11.00;60.30;;;;;;4971131;28;20083;-80
2023/12/27 08:19:33;;;;;;;21.70;4.78;;;11.70;63.70;;;;;;4970196;28;20073;-81
2023/12/27 08:21:58;;;;;;;21.10;6.32;;;12.30;76.30;;;;;;4967560;28;20451;-81
2023/12/27 08:24:24;;;;;;;22.48;5.75;;;10.90;76.70;;;;;;4968029;28;20406;-81
2023/12/27 08:26:49;;;;;;;25.52;4.57;;;11.30;84.40;;;;;;4950785;28;20525;-80
2023/12/27 08:29:15;;;;;;;12.52;4.60;;;11.50;92.20;;;;;;4968714;28;20049;-81
2023/12/27 08:31:41;;;;;;;13.20;4.15;;;12.30;95.50;;;;;;4970491;28;20055;-81
2023/12/27 08:34:06;;;;;;;20.58;5.32;;;11.00;97.20;;;;;;4969203;28;20050;-80
2023/12/27 08:36:32;;;;;;;16.90;4.22;;;11.40;99.90;;;;;;4951132;28;20038;-81
2023/12/27 08:38:58;;;;;;;16.80;3.63;;;11.10;99.90;;;;;;4976478;28;20027;-81
2023/12/27 08:41:25;;;;;;;17.63;4.47;;;11.90;99.90;;;;;;4975826;28;20041;-81
2023/12/27 08:43:53;;;;;;;16.75;3.75;;;11.30;99.90;;;;;;4978003;28;20574;-80
2023/12/27 08:46:21;;;;;;;13.13;3.83;;;11.60;99.90;;;;;;4980160;28;20074;-81
2023/12/27 08:48:47;;;;;;;16.75;4.13;;;10.90;99.90;;;;;;4979873;28;20039;-81
2023/12/27 08:51:13;;;;;;;26.35;6.45;;;12.30;99.90;;;;;;4975082;28;20090;-80
2023/12/27 08:53:39;;;;;;;30.63;9.10;;;11.90;99.90;;;;;;4978730;28;20047;-81
2023/12/27 08:56:05;;;;;;;26.33;7.28;;;11.90;99.90;;;;;;4962426;28;20035;-81
2023/12/27 08:58:30;;;;;;;25.23;6.63;;;11.50;99.90;;;;;;4961831;28;20047;-81
2023/12/27 09:00:58;;;;;;;22.17;6.60;;;11.50;99.90;;;;;;4972308;28;20038;-81
2023/12/27 09:03:24;;;;;;;23.55;6.40;;;11.30;99.90;;;;;;4954706;28;20446;-81
2023/12/27 09:05:50;;;;;;;20.65;5.80;;;11.50;99.90;;;;;;4975144;28;20039;-81
2023/12/27 09:08:16;;;;;;;21.35;6.05;;;12.10;99.90;;;;;;4971870;28;20062;-81
2023/12/27 09:10:42;;;;;;;26.42;6.38;;;12.20;99.90;;;;;;4974045;28;20042;-81
2023/12/27 09:13:09;;;;;;;15.27;5.53;;;11.70;99.90;;;;;;4948991;28;20031;-82
2023/12/27 09:15:34;;;;;;;26.85;6.13;;;11.20;99.90;;;;;;4970797;28;20052;-81
2023/12/27 09:18:00;;;;;;;20.65;4.93;;;11.90;99.90;;;;;;4957221;28;20110;-81
2023/12/27 09:20:25;;;;;;;22.17;5.57;;;11.00;99.90;;;;;;4973209;28;20430;-81
2023/12/27 09:22:51;;;;;;;15.57;4.43;;;11.20;99.90;;;;;;4976125;28;20456;-81
2023/12/27 09:25:17;;;;;;;12.45;3.88;;;11.60;99.90;;;;;;4960148;28;20039;-81
2023/12/27 09:27:46;;;;;;;11.15;3.88;;;11.80;99.90;;;;;;4976058;28;20157;-81
2023/12/27 09:30:12;;;;;;;12.98;4.15;;;11.00;99.90;;;;;;4973168;28;20049;-81
2023/12/27 09:32:38;;;;;;;12.63;3.47;;;11.60;99.90;;;;;;4979009;28;20038;-81
2023/12/27 09:35:04;;;;;;;16.35;5.03;;;11.00;99.90;;;;;;4978433;28;20417;-81
2023/12/27 09:37:30;;;;;;;10.02;2.95;;;11.50;99.90;;;;;;4972351;28;20671;-81
2023/12/27 09:39:56;;;;;;;12.63;3.35;;;11.40;99.90;;;;;;4967563;28;20084;-81
2023/12/27 09:42:22;;;;;;;9.55;2.65;;;11.30;99.90;;;;;;4978498;28;20452;-81
2023/12/27 09:44:49;;;;;;;13.23;3.60;;;12.40;99.90;;;;;;4959852;28;20052;-81
2023/12/27 09:47:16;;;;;;;12.60;3.42;;;12.30;99.90;;;;;;4975823;28;20047;-81
2023/12/27 09:49:42;;;;;;;11.48;2.63;;;11.80;99.90;;;;;;4974945;28;20050;-81
2023/12/27 09:52:08;;;;;;;8.23;2.70;;;11.60;99.90;;;;;;4974733;28;20050;-81
2023/12/27 09:54:35;;;;;;;8.23;2.42;;;11.80;99.90;;;;;;4973432;28;20089;-81
2023/12/27 09:57:01;;;;;;;9.02;2.60;;;11.70;99.90;;;;;;4960754;28;20133;-81
2023/12/27 09:59:36;;;;;;;8.20;2.25;;;12.00;99.90;;;;;;4977040;28;20120;-81
2023/12/27 10:02:04;;;;;;;9.05;2.30;;;11.10;99.90;;;;;;4959165;28;20034;-81
2023/12/27 10:04:44;;;;;;;6.97;2.38;;;11.00;99.90;;;;;;4977749;28;20073;-81
2023/12/27 10:07:12;;;;;;;7.95;3.00;;;11.80;99.90;;;;;;4969757;28;20054;-81
2023/12/27 10:09:38;;;;;;;11.55;2.65;;;11.80;99.90;;;;;;4973277;28;20475;-81
2023/12/27 10:12:07;;;;;;;7.53;2.38;;;10.90;99.90;;;;;;4979309;28;20050;-81
2023/12/27 10:14:35;;;;;;;7.70;2.38;;;11.10;99.90;;;;;;4974331;28;20125;-81
2023/12/27 10:17:02;;;;;;;8.65;2.22;;;11.90;99.90;;;;;;4956139;28;20039;-82
2023/12/27 10:19:38;;;;;;;6.95;2.13;;;11.20;99.90;;;;;;4978099;28;20506;-81
2023/12/27 10:22:04;;;;;;;9.70;2.30;;;11.70;99.90;;;;;;4974694;28;20131;-81
2023/12/27 10:24:30;;;;;;;9.10;2.30;;;11.90;99.90;;;;;;4975368;28;20067;-81
2023/12/27 10:26:58;;;;;;;8.52;2.15;;;11.60;99.90;;;;;;4963143;28;20046;-81
2023/12/27 10:29:24;;;;;;;6.20;2.13;;;11.70;99.90;;;;;;4959500;28;20183;-81
2023/12/27 10:31:50;;;;;;;8.35;2.45;;;11.20;99.90;;;;;;4971869;28;20062;-81
2023/12/27 10:34:18;;;;;;;12.45;3.05;;;11.20;99.90;;;;;;4983033;28;20047;-81
2023/12/27 10:36:43;;;;;;;6.35;2.25;;;11.80;99.90;;;;;;4970053;28;20133;-81
2023/12/27 10:39:09;;;;;;;10.38;2.38;;;10.90;99.90;;;;;;4970596;28;20502;-82
2023/12/27 10:41:37;;;;;;;8.35;2.35;;;11.80;99.90;;;;;;4970641;28;20125;-82
2023/12/27 10:44:06;;;;;;;6.75;1.90;;;11.70;99.90;;;;;;4976499;28;20035;-81
2023/12/27 10:46:33;;;;;;;5.97;2.10;;;11.60;99.90;;;;;;4972155;28;20053;-81
2023/12/27 10:49:03;;;;;;;8.10;2.53;;;11.00;99.90;;;;;;4959145;28;20046;-80
2023/12/27 10:51:29;;;;;;;7.22;2.45;;;;;;;;;;4959608;28;20505;-81
2023/12/27 10:54:00;;;;;;;6.90;2.30;;;11.20;99.90;;;;;;4974687;28;20058;-81
2023/12/27 10:56:26;;;;;;;7.35;2.15;;;11.30;99.90;;;;;;4973977;28;20475;-81
2023/12/27 10:58:55;;;;;;;7.28;2.05;;;12.30;99.90;;;;;;4956131;28;20077;-80
2023/12/27 11:01:23;;;;;;;6.63;2.50;;;11.30;99.90;;;;;;4979008;28;20077;-81
2023/12/27 11:03:51;;;;;;;6.75;2.38;;;11.00;99.90;;;;;;4956861;28;20038;-82
2023/12/27 11:06:21;;;;;;;7.63;2.22;;;11.90;99.90;;;;;;4960965;28;20050;-81
2023/12/27 11:08:48;;;;;;;6.60;2.45;;;11.40;99.90;;;;;;4974441;28;20455;-81
2023/12/27 11:11:15;;;;;;;9.80;2.53;;;11.30;99.90;;;;;;4971003;28;20089;-81
2023/12/27 11:13:42;;;;;;;9.88;4.05;;;11.10;99.90;;;;;;4976380;28;20034;-81
2023/12/27 11:16:10;;;;;;;17.50;3.83;;;11.50;99.90;;;;;;4957570;28;20050;-82
2023/12/27 11:18:36;;;;;;;12.05;3.92;;;11.30;99.90;;;;;;4944690;28;20090;-81
2023/12/27 11:21:02;;;;;;;19.95;5.18;;;11.70;99.90;;;;;;4970567;28;20081;-90
2023/12/27 11:23:27;;;;;;;17.60;5.13;;;11.50;99.90;;;;;;4952169;28;20408;-87
2023/12/27 11:25:55;;;;;;;16.45;4.95;;;11.20;99.90;;;;;;4971641;28;20042;-85
2023/12/27 11:28:21;;;;;;;18.45;5.07;;;11.70;99.90;;;;;;4969372;28;20039;-83
2023/12/27 11:30:47;;;;;;;17.85;5.03;;;11.10;99.90;;;;;;4957721;28;20030;-81
2023/12/27 11:33:22;;;;;;;17.42;4.97;;;11.60;99.90;;;;;;4979208;28;20065;-81
2023/12/27 11:35:47;;;;;;;22.05;5.45;;;11.20;99.90;;;;;;4973895;28;20042;-81
2023/12/27 11:38:19;;;;;;;15.85;5.28;;;12.10;99.90;;;;;;4979615;28;20026;-81
2023/12/27 11:40:46;;;;;;;19.17;5.38;;;12.20;99.90;;;;;;4955790;28;20039;-81
2023/12/27 11:43:22;;;;;;;20.27;5.28;;;11.50;99.90;;;;;;4979126;28;20098;-81
2023/12/27 11:46:01;;;;;;;13.10;5.10;;;12.20;99.90;;;;;;4987717;28;20043;-81
2023/12/27 11:48:31;;;;;;;15.52;5.53;;;11.70;99.90;;;;;;4969367;28;20124;-80
2023/12/27 11:50:59;;;;;;;11.25;4.63;;;12.10;99.90;;;;;;4971106;28;20042;-81
2023/12/27 11:53:29;;;;;;;17.88;5.65;;;11.70;99.90;;;;;;4966856;28;20049;-81
2023/12/27 11:56:04;;;;;;;17.63;5.07;;;11.70;99.90;;;;;;4969646;28;20042;-81
2023/12/27 11:58:38;;;;;;;19.58;4.93;;;12.00;99.90;;;;;;4957094;28;20035;-81
2023/12/27 12:01:28;;;;;;;13.32;4.78;;;11.80;99.90;;;;;;4975515;28;20046;-82
2023/12/27 12:03:54;;;;;;;12.50;4.35;;;11.80;99.90;;;;;;5005492;28;20038;-81
2023/12/27 12:06:40;;;;;;;10.65;4.65;;;12.20;99.90;;;;;;4973412;28;20493;-81
2023/12/27 12:09:07;;;;;;;11.93;4.40;;;11.70;99.90;;;;;;4974622;28;20047;-81
2023/12/27 12:11:36;;;;;;;9.85;4.00;;;11.30;99.90;;;;;;4977857;28;20048;-81
2023/12/27 12:14:04;;;;;;;14.02;3.95;;;11.30;99.90;;;;;;4971212;28;20094;-81
2023/12/27 12:16:32;;;;;;;10.35;4.60;;;12.10;99.90;;;;;;4977449;28;20088;-80
2023/12/27 12:19:03;;;;;;;8.60;3.50;;;11.40;99.90;;;;;;4978649;28;20043;-81
2023/12/27 12:21:30;;;;;;;10.20;3.95;;;12.20;99.90;;;;;;4977047;28;20414;-81
2023/12/27 12:23:55;;;;;;;15.52;3.88;;;12.30;99.90;;;;;;4976800;28;20403;-80
2023/12/27 12:26:21;;;;;;;10.63;3.78;;;12.50;99.90;;;;;;4972524;28;20039;-80
2023/12/27 12:28:58;;;;;;;13.40;4.07;;;11.60;99.90;;;;;;4960376;28;20073;-81
2023/12/27 12:31:24;;;;;;;9.20;3.95;;;12.80;99.90;;;;;;4970180;28;20039;-80
2023/12/27 12:33:49;;;;;;;8.57;3.35;;;12.00;99.90;;;;;;4973302;28;20062;-81
2023/12/27 12:36:16;;;;;;;10.05;4.00;;;12.00;99.90;;;;;;4972913;28;20109;-81
2023/12/27 12:38:42;;;;;;;9.25;3.47;;;12.00;99.90;;;;;;4972050;28;20035;-81
2023/12/27 12:41:09;;;;;;;9.05;3.65;;;12.10;99.90;;;;;;4975747;28;20170;-81
2023/12/27 12:43:35;;;;;;;8.27;3.58;;;11.50;99.90;;;;;;4976895;28;20049;-81
2023/12/27 12:46:01;;;;;;;10.95;3.63;;;12.00;99.90;;;;;;4973333;28;20117;-81
2023/12/27 12:48:27;;;;;;;6.60;2.90;;;12.90;99.90;;;;;;4973215;28;20451;-80